Time;durP1;ratioP1;P1;durP2;ratioP2;P2;SDS_P1;SDS_P2;PMS_P1;PMS_P2;Temp;Humidity;BMP_temperature;BMP_pressure;BME280_temperature;BME280_humidity;BME280_pressure;Samples;Min_cycle;Max_cycle;Signal;HPM_P1;HPM_P2
2023/03/19 00:03:44;;;;;;;24.58;16.63;;;;;;;;;;10439852;28;20511;-88
2023/03/19 00:08:47;;;;;;;23.25;16.55;;;;;;;;;;10443368;28;20424;-88
2023/03/19 00:13:49;;;;;;;23.08;15.77;;;;;;;;;;10445555;28;20408;-88
2023/03/19 00:18:51;;;;;;;22.33;15.20;;;;;;;;;;10441664;28;20485;-89
2023/03/19 00:23:59;;;;;;;22.27;15.23;;;;;;;;;;10448072;28;20422;-89
2023/03/19 00:29:01;;;;;;;22.20;15.13;;;;;;;;;;10441074;28;20473;-90
2023/03/19 00:34:03;;;;;;;22.33;15.13;;;;;;;;;;10438333;28;20513;-90
2023/03/19 00:39:07;;;;;;;24.63;15.27;;;;;;;;;;10428887;28;20520;-89
2023/03/19 00:44:09;;;;;;;24.50;15.38;;;;;;;;;;10444359;28;20413;-90
2023/03/19 00:49:11;;;;;;;24.08;15.57;;;;;;;;;;10443270;28;20414;-89
2023/03/19 00:54:14;;;;;;;27.27;16.67;;;;;;;;;;10439865;28;20437;-89
2023/03/19 00:59:16;;;;;;;23.35;15.57;;;;;;;;;;10454757;28;20440;-90
2023/03/19 01:04:19;;;;;;;20.80;15.40;;;;;;;;;;10438423;28;20433;-89
2023/03/19 01:09:22;;;;;;;24.52;14.23;;;;;;;;;;10442005;28;20403;-89
2023/03/19 01:14:24;;;;;;;22.45;15.65;;;;;;;;;;10443747;28;20412;-88
2023/03/19 01:19:26;;;;;;;22.05;15.35;;;;;;;;;;10431461;28;20850;-88
2023/03/19 01:24:31;;;;;;;22.05;14.63;;;;;;;;;;10440202;28;20404;-89
2023/03/19 01:29:33;;;;;;;20.77;14.48;;;;;;;;;;10428480;28;20411;-89
2023/03/19 01:34:35;;;;;;;20.17;14.95;;;;;;;;;;10431279;28;20423;-89
2023/03/19 01:39:39;;;;;;;22.40;14.88;;;;;;;;;;10443365;28;20488;-87
2023/03/19 01:44:43;;;;;;;22.40;16.33;;;;;;;;;;10433341;28;20408;-89
2023/03/19 01:49:52;;;;;;;24.05;15.70;;;;;;;;;;10433058;28;20640;-89
2023/03/19 01:54:57;;;;;;;20.50;15.10;;;;;;;;;;10432835;28;20464;-88
2023/03/19 02:00:02;;;;;;;22.30;15.18;;;;;;;;;;10428828;28;20455;-88
2023/03/19 02:05:08;;;;;;;20.13;14.52;;;;;;;;;;10440043;28;20408;-89
2023/03/19 02:10:14;;;;;;;21.30;14.82;;;;;;;;;;10439301;28;20779;-89
2023/03/19 02:15:17;;;;;;;22.63;14.93;;;;;;;;;;10454607;28;20503;-89
2023/03/19 02:20:26;;;;;;;19.60;14.07;;;;;;;;;;10451104;28;20424;-89
2023/03/19 02:25:36;;;;;;;19.77;14.47;;;;;;;;;;10436906;28;20456;-88
2023/03/19 02:30:39;;;;;;;20.65;14.25;;;;;;;;;;10446278;28;20438;-88
2023/03/19 02:35:43;;;;;;;20.23;14.57;;;;;;;;;;10434780;28;20507;-88
2023/03/19 02:40:51;;;;;;;23.43;14.97;;;;;;;;;;10446230;28;20556;-88
2023/03/19 02:45:55;;;;;;;23.95;15.73;;;;;;;;;;10441321;28;20784;-89
2023/03/19 02:50:56;;;;;;;19.67;14.40;;;;;;;;;;10440915;28;20427;-88
2023/03/19 02:55:58;;;;;;;23.30;15.48;;;;;;;;;;10443906;28;20404;-88
2023/03/19 03:01:01;;;;;;;20.77;14.50;;;;;;;;;;10434241;28;20431;-88
2023/03/19 03:06:04;;;;;;;20.77;14.45;;;;;;;;;;10447522;28;20496;-89
2023/03/19 03:11:06;;;;;;;23.20;15.75;;;;;;;;;;10443479;28;20487;-88
2023/03/19 03:16:10;;;;;;;22.45;15.90;;;;;;;;;;10444305;28;20436;-88
2023/03/19 03:21:11;;;;;;;21.40;15.63;;;;;;;;;;10435674;28;20465;-88
2023/03/19 03:26:13;;;;;;;24.23;17.10;;;;;;;;;;10434747;28;20396;-88
2023/03/19 03:31:17;;;;;;;23.33;17.05;;;;;;;;;;10444660;28;20484;-89
2023/03/19 03:36:18;;;;;;;24.67;17.77;;;;;;;;;;10433665;28;20417;-88
2023/03/19 03:41:20;;;;;;;25.60;17.20;;;;;;;;;;10441052;28;20520;-89
2023/03/19 03:46:24;;;;;;;27.23;17.95;;;;;;;;;;10435909;28;20828;-88
2023/03/19 03:51:26;;;;;;;24.67;18.57;;;;;;;;;;10439223;28;20430;-88
2023/03/19 03:56:28;;;;;;;26.60;18.13;;;;;;;;;;10433331;28;20413;-88
2023/03/19 04:01:31;;;;;;;27.43;19.30;;;;;;;;;;10448286;28;20463;-89
2023/03/19 04:06:33;;;;;;;27.38;19.65;;;;;;;;;;10437134;28;20894;-88
2023/03/19 04:11:35;;;;;;;27.63;19.88;;;;;;;;;;10440094;28;20456;-89
2023/03/19 04:16:39;;;;;;;27.30;20.48;;;;;;;;;;10430695;28;20907;-89
2023/03/19 04:21:40;;;;;;;29.73;20.08;;;;;;;;;;10433022;28;20424;-89
2023/03/19 04:26:42;;;;;;;28.52;20.80;;;;;;;;;;10435252;28;20463;-87
2023/03/19 04:31:46;;;;;;;28.47;21.43;;;;;;;;;;10435251;28;20882;-89
2023/03/19 04:36:48;;;;;;;25.67;21.17;;;;;;;;;;10445077;28;20450;-87
2023/03/19 04:41:50;;;;;;;29.30;20.77;;;;;;;;;;10440470;28;20424;-88
2023/03/19 04:46:53;;;;;;;31.13;22.52;;;;;;;;;;10430621;28;20445;-89
2023/03/19 04:51:55;;;;;;;31.73;21.73;;;;;;;;;;10443466;28;20442;-88
2023/03/19 04:56:57;;;;;;;28.20;20.20;;;;;;;;;;10444629;28;20465;-89
2023/03/19 05:02:02;;;;;;;29.13;21.30;;;;;;;;;;10436303;28;20516;-89
2023/03/19 05:07:04;;;;;;;26.90;19.50;;;;;;;;;;10428450;28;20525;-88
2023/03/19 05:12:07;;;;;;;26.97;19.17;;;;;;;;;;10435561;28;20414;-89
2023/03/19 05:17:11;;;;;;;28.58;19.02;;;;;;;;;;10430772;28;20472;-89
2023/03/19 05:22:13;;;;;;;27.77;18.33;;;;;;;;;;10429300;28;20867;-89
2023/03/19 05:27:15;;;;;;;26.60;18.73;;;;;;;;;;10433316;28;20418;-88
2023/03/19 05:32:19;;;;;;;26.55;19.27;;;;;;;;;;10434372;28;20796;-90
2023/03/19 05:37:21;;;;;;;24.77;18.75;;;;;;;;;;10426346;28;20396;-89
2023/03/19 05:42:23;;;;;;;28.73;19.30;;;;;;;;;;10433747;28;20420;-88
2023/03/19 05:47:26;;;;;;;25.70;18.43;;;;;;;;;;10430893;28;20516;-89
2023/03/19 05:52:28;;;;;;;26.13;18.40;;;;;;;;;;10442779;28;20437;-88
2023/03/19 05:57:30;;;;;;;25.27;17.77;;;;;;;;;;10446466;28;20416;-88
2023/03/19 06:02:34;;;;;;;24.67;17.67;;;;;;;;;;10442168;28;20522;-89
2023/03/19 06:07:36;;;;;;;24.83;17.25;;;;;;;;;;10430670;28;20467;-87
2023/03/19 06:12:38;;;;;;;27.33;18.23;;;;;;;;;;10437063;28;20416;-87
2023/03/19 06:17:43;;;;;;;23.25;17.85;;;;;;;;;;10438464;28;20466;-88
2023/03/19 06:22:45;;;;;;;25.55;17.52;;;;;;;;;;10433371;28;20422;-89
2023/03/19 06:27:47;;;;;;;26.08;17.75;;;;;;;;;;10426268;28;20842;-89
2023/03/19 06:32:50;;;;;;;23.42;17.30;;;;;;;;;;10442175;28;20592;-89
2023/03/19 06:37:52;;;;;;;23.55;16.35;;;;;;;;;;10441829;28;20467;-89
2023/03/19 06:42:54;;;;;;;24.35;16.40;;;;;;;;;;10441695;28;20785;-91
2023/03/19 06:47:57;;;;;;;26.15;16.83;;;;;;;;;;10419002;28;20876;-89
2023/03/19 06:52:59;;;;;;;27.47;17.00;;;;;;;;;;10442402;28;20407;-91
2023/03/19 06:58:01;;;;;;;25.23;16.70;;;;;;;;;;10434924;28;20408;-90
2023/03/19 07:03:06;;;;;;;25.77;16.17;;;;;;;;;;10454653;28;20445;-90
2023/03/19 07:08:10;;;;;;;24.90;16.70;;;;;;;;;;10452237;28;20506;-90
2023/03/19 07:13:12;;;;;;;27.45;17.60;;;;;;;;;;10448068;28;20490;-90
2023/03/19 07:18:16;;;;;;;26.20;17.73;;;;;;;;;;10454657;28;20886;-90
2023/03/19 07:23:18;;;;;;;25.77;17.13;;;;;;;;;;10449733;28;20487;-91
2023/03/19 07:28:20;;;;;;;31.08;19.08;;;;;;;;;;10458156;28;20782;-90
2023/03/19 07:33:24;;;;;;;29.42;18.48;;;;;;;;;;10468822;28;20490;-91
2023/03/19 07:38:26;;;;;;;24.40;17.67;;;;;;;;;;10459079;28;20422;-90
2023/03/19 07:43:27;;;;;;;27.27;18.10;;;;;;;;;;10441629;28;20433;-90
2023/03/19 07:48:31;;;;;;;28.23;17.73;;;;;;;;;;10452686;28;20403;-90
2023/03/19 07:53:33;;;;;;;27.58;17.33;;;;;;;;;;10445500;28;20496;-91
2023/03/19 07:58:34;;;;;;;27.08;18.02;;;;;;;;;;10453061;28;20427;-90
2023/03/19 08:03:38;;;;;;;28.43;17.53;;;;;;;;;;10450219;28;20534;-90
2023/03/19 08:08:40;;;;;;;25.75;17.27;;;;;;;;;;10450048;28;20415;-90
2023/03/19 08:13:42;;;;;;;28.77;17.88;;;;;;;;;;10440553;28;20479;-89
2023/03/19 08:18:46;;;;;;;29.52;18.05;;;;;;;;;;10451397;28;20487;-91
2023/03/19 08:23:47;;;;;;;27.05;18.35;;;;;;;;;;10449839;28;21044;-90
2023/03/19 08:28:49;;;;;;;24.92;16.50;;;;;;;;;;10456464;28;20766;-90
2023/03/19 08:33:54;;;;;;;25.47;16.87;;;;;;;;;;10450406;28;20411;-89
2023/03/19 08:38:57;;;;;;;24.63;16.70;;;;;;;;;;10445719;28;20901;-90
2023/03/19 08:43:59;;;;;;;24.52;15.40;;;;;;;;;;10451585;28;20432;-90
2023/03/19 08:49:03;;;;;;;23.02;15.50;;;;;;;;;;10456560;28;20461;-90
2023/03/19 08:54:05;;;;;;;21.35;15.65;;;;;;;;;;10455647;28;20449;-91
2023/03/19 08:59:07;;;;;;;22.95;15.38;;;;;;;;;;10453110;28;20987;-90
2023/03/19 09:04:10;;;;;;;17.13;13.15;;;;;;;;;;10450174;28;20508;-91
2023/03/19 09:09:12;;;;;;;18.40;12.48;;;;;;;;;;10442965;28;20529;-91
2023/03/19 09:31:38;;;;;;;19.30;13.13;;;;;;;;;;10408899;23;20508;-86
2023/03/19 09:36:40;;;;;;;18.27;12.77;;;;;;;;;;10393392;28;20414;-86
2023/03/19 09:41:58;;;;;;;19.20;13.77;;;;;;;;;;10398214;28;20437;-85
2023/03/19 09:47:10;;;;;;;18.27;12.77;;;;;;;;;;10397452;28;20965;-86
2023/03/19 09:52:28;;;;;;;18.23;13.53;;;;;;;;;;10398029;28;20494;-86
2023/03/19 09:57:32;;;;;;;17.95;13.05;;;;;;;;;;10388331;28;20440;-86
2023/03/19 10:02:41;;;;;;;20.42;13.57;;;;;;;;;;10401797;28;20919;-85
2023/03/19 10:07:59;;;;;;;17.20;12.83;;;;;;;;;;10398989;28;20425;-86
2023/03/19 10:13:11;;;;;;;19.15;11.85;;;;;;;;;;10387683;28;20426;-86
2023/03/19 10:18:19;;;;;;;19.33;12.70;;;;;;;;;;10399517;28;20627;-86
2023/03/19 10:23:33;;;;;;;16.92;12.50;;;;;;;;;;10395249;28;20437;-86
2023/03/19 10:28:36;;;;;;;15.13;11.53;;;;;;;;;;10416714;28;20415;-86
2023/03/19 10:33:45;;;;;;;15.60;11.65;;;;;;;;;;10398991;28;20431;-86
2023/03/19 10:38:47;;;;;;;14.77;10.30;;;;;;;;;;10425514;28;20423;-86
2023/03/19 10:43:53;;;;;;;16.90;10.90;;;;;;;;;;10394026;28;20521;-87
2023/03/19 10:48:57;;;;;;;13.15;10.27;;;;;;;;;;10392006;28;20421;-86
2023/03/19 10:54:01;;;;;;;9.98;7.28;;;;;;;;;;10385222;28;20434;-85
2023/03/19 10:59:05;;;;;;;11.32;7.75;;;;;;;;;;10398879;28;20821;-85
2023/03/19 11:04:16;;;;;;;8.63;5.50;;;;;;;;;;10393790;28;20442;-85
2023/03/19 11:09:24;;;;;;;10.52;6.38;;;;;;;;;;10378506;28;20422;-84
2023/03/19 11:14:31;;;;;;;9.55;7.20;;;;;;;;;;10385771;28;20510;-85
2023/03/19 11:19:41;;;;;;;10.15;6.75;;;;;;;;;;10396215;28;20403;-85
2023/03/19 11:24:49;;;;;;;11.60;7.22;;;;;;;;;;10406495;28;20427;-85
2023/03/19 11:29:51;;;;;;;11.70;8.13;;;;;;;;;;10385931;28;20415;-86
2023/03/19 11:35:00;;;;;;;12.10;7.70;;;;;;;;;;10391967;28;20413;-85
2023/03/19 11:40:12;;;;;;;14.10;8.48;;;;;;;;;;10375678;28;20458;-85
2023/03/19 11:45:24;;;;;;;14.95;9.73;;;;;;;;;;10390261;28;20429;-85
2023/03/19 11:50:34;;;;;;;15.93;9.15;;;;;;;;;;10394104;28;20488;-85
2023/03/19 11:55:42;;;;;;;13.10;8.30;;;;;;;;;;10393705;28;20449;-85
2023/03/19 12:00:47;;;;;;;13.98;9.32;;;;;;;;;;10388848;28;20423;-85
2023/03/19 12:05:56;;;;;;;13.82;9.15;;;;;;;;;;10398572;28;20792;-85
2023/03/19 12:11:06;;;;;;;16.60;9.25;;;;;;;;;;10393162;28;20413;-85
2023/03/19 12:16:17;;;;;;;14.50;9.30;;;;;;;;;;10393880;28;20417;-85
2023/03/19 12:21:29;;;;;;;13.57;9.18;;;;;;;;;;10400495;28;20500;-84
2023/03/19 12:26:42;;;;;;;15.77;9.77;;;;;;;;;;10373828;28;20542;-85
2023/03/19 12:32:00;;;;;;;15.18;9.90;;;;;;;;;;10431406;28;20415;-85
2023/03/19 12:37:13;;;;;;;15.27;9.57;;;;;;;;;;10418809;28;20799;-85
2023/03/19 12:42:18;;;;;;;15.70;9.80;;;;;;;;;;10432209;28;20783;-85
2023/03/19 12:47:25;;;;;;;16.73;10.10;;;;;;;;;;10431867;28;20770;-85
2023/03/19 12:52:35;;;;;;;16.35;10.20;;;;;;;;;;10420526;28;20484;-84
2023/03/19 12:57:44;;;;;;;15.60;10.18;;;;;;;;;;10418729;28;20504;-86
2023/03/19 13:02:52;;;;;;;15.18;9.70;;;;;;;;;;10432831;28;20430;-85
2023/03/19 13:08:03;;;;;;;16.47;10.60;;;;;;;;;;10413995;28;20413;-85
2023/03/19 13:13:28;;;;;;;16.07;10.60;;;;;;;;;;10425793;28;20687;-85
2023/03/19 13:18:38;;;;;;;16.17;10.93;;;;;;;;;;10435249;28;20404;-86
2023/03/19 13:23:44;;;;;;;15.85;11.25;;;;;;;;;;10437123;28;20435;-86
2023/03/19 13:29:01;;;;;;;16.55;12.38;;;;;;;;;;10436653;28;20427;-86
2023/03/19 13:34:06;;;;;;;16.35;11.45;;;;;;;;;;10435077;28;20417;-85
2023/03/19 13:39:17;;;;;;;15.75;11.20;;;;;;;;;;10430841;28;20461;-87
2023/03/19 13:44:28;;;;;;;15.70;10.73;;;;;;;;;;10426656;28;20479;-86
2023/03/19 13:49:34;;;;;;;16.17;11.75;;;;;;;;;;10433873;28;21008;-87
2023/03/19 13:54:53;;;;;;;15.98;11.32;;;;;;;;;;10436235;28;20449;-87
2023/03/19 13:59:55;;;;;;;16.85;11.85;;;;;;;;;;10441296;28;20476;-87
2023/03/19 14:05:01;;;;;;;16.52;11.50;;;;;;;;;;10435237;28;20427;-87
2023/03/19 14:10:08;;;;;;;17.80;11.73;;;;;;;;;;10438448;28;20414;-87
2023/03/19 14:15:17;;;;;;;17.58;11.38;;;;;;;;;;10440630;28;20467;-87
2023/03/19 14:20:26;;;;;;;17.42;12.05;;;;;;;;;;10448409;28;20921;-87
2023/03/19 14:25:56;;;;;;;16.20;12.43;;;;;;;;;;10441557;28;20425;-85
2023/03/19 14:31:00;;;;;;;17.15;12.00;;;;;;;;;;10413340;28;20425;-85
2023/03/19 14:36:04;;;;;;;15.40;11.55;;;;;;;;;;10405737;28;20941;-85
2023/03/19 14:41:15;;;;;;;16.00;12.15;;;;;;;;;;10400323;28;20476;-84
2023/03/19 14:46:27;;;;;;;17.75;13.38;;;;;;;;;;10395148;28;20505;-85
2023/03/19 14:51:54;;;;;;;18.15;12.50;;;;;;;;;;10403814;28;20402;-87
2023/03/19 14:56:57;;;;;;;19.02;12.68;;;;;;;;;;10388303;28;20409;-87
2023/03/19 15:01:59;;;;;;;17.00;12.90;;;;;;;;;;10401944;28;20429;-87
2023/03/19 15:07:01;;;;;;;16.48;12.80;;;;;;;;;;10402765;28;20492;-87
2023/03/19 15:12:44;;;;;;;15.65;12.40;;;;;;;;;;10401303;28;20416;-85
2023/03/19 15:17:50;;;;;;;18.17;13.20;;;;;;;;;;10394567;28;20458;-83
2023/03/19 15:22:57;;;;;;;17.43;13.13;;;;;;;;;;10408793;28;20436;-85
2023/03/19 15:28:08;;;;;;;18.70;14.40;;;;;;;;;;10391811;28;20433;-83
2023/03/19 15:33:25;;;;;;;15.45;12.93;;;;;;;;;;10402934;28;20413;-85
2023/03/19 15:38:31;;;;;;;17.77;12.63;;;;;;;;;;10379811;28;20447;-84
2023/03/19 15:43:35;;;;;;;19.83;13.17;;;;;;;;;;10398165;28;20421;-84
2023/03/19 15:48:43;;;;;;;22.10;15.80;;;;;;;;;;10395901;28;20455;-85
2023/03/19 15:53:46;;;;;;;19.13;12.90;;;;;;;;;;10394313;28;20442;-86
2023/03/19 15:58:51;;;;;;;18.70;13.65;;;;;;;;;;10390521;28;20798;-86
2023/03/19 16:04:00;;;;;;;17.77;12.88;;;;;;;;;;10387949;28;20421;-86
2023/03/19 16:09:19;;;;;;;18.73;13.93;;;;;;;;;;10378426;28;20443;-87
2023/03/19 16:14:26;;;;;;;20.33;14.03;;;;;;;;;;10390331;28;20413;-86
2023/03/19 16:19:32;;;;;;;17.48;13.43;;;;;;;;;;10393765;28;20459;-86
2023/03/19 16:24:37;;;;;;;69.57;32.08;;;;;;;;;;10378649;28;20800;-86
2023/03/19 16:29:41;;;;;;;72.43;35.30;;;;;;;;;;10390850;28;20419;-87
2023/03/19 16:34:46;;;;;;;22.58;15.52;;;;;;;;;;10391444;28;20422;-86
2023/03/19 16:39:54;;;;;;;20.08;13.70;;;;;;;;;;10377618;28;20980;-83
2023/03/19 16:44:57;;;;;;;19.35;14.18;;;;;;;;;;10388864;28;20872;-87
2023/03/19 16:50:00;;;;;;;19.90;13.57;;;;;;;;;;10393973;28;20897;-87
2023/03/19 16:55:04;;;;;;;19.40;14.07;;;;;;;;;;10384376;28;20489;-86
2023/03/19 17:00:10;;;;;;;12.25;8.82;;;;;;;;;;10390835;28;20415;-86
2023/03/19 17:05:15;;;;;;;9.63;6.90;;;;;;;;;;10385270;28;20473;-86
2023/03/19 17:10:19;;;;;;;9.65;6.97;;;;;;;;;;10389497;28;20776;-86
2023/03/19 17:15:24;;;;;;;9.48;7.20;;;;;;;;;;10392490;28;20413;-86
2023/03/19 17:20:33;;;;;;;11.63;8.07;;;;;;;;;;10381395;28;20441;-86
2023/03/19 17:25:35;;;;;;;11.53;8.27;;;;;;;;;;10384908;28;20937;-86
2023/03/19 17:30:38;;;;;;;11.10;7.80;;;;;;;;;;10426117;28;20424;-86
2023/03/19 17:35:41;;;;;;;11.75;8.10;;;;;;;;;;10418074;28;20409;-86
2023/03/19 17:40:43;;;;;;;12.50;7.93;;;;;;;;;;10429890;28;20403;-85
2023/03/19 17:45:47;;;;;;;9.95;6.75;;;;;;;;;;10423719;28;20951;-86
2023/03/19 17:50:51;;;;;;;8.57;6.50;;;;;;;;;;10423403;28;21344;-86
2023/03/19 17:55:53;;;;;;;10.82;6.93;;;;;;;;;;10436172;28;20425;-85
2023/03/19 18:00:54;;;;;;;7.38;5.80;;;;;;;;;;10427959;28;21000;-83
2023/03/19 18:06:00;;;;;;;8.68;6.40;;;;;;;;;;10429873;28;20461;-86
2023/03/19 18:11:02;;;;;;;9.32;6.95;;;;;;;;;;10433282;28;20499;-87
2023/03/19 18:16:05;;;;;;;9.47;6.93;;;;;;;;;;10433637;28;20395;-86
2023/03/19 18:21:12;;;;;;;11.23;8.07;;;;;;;;;;10429446;28;20485;-86
2023/03/19 18:26:15;;;;;;;13.02;9.45;;;;;;;;;;10431011;28;20904;-85
2023/03/19 18:31:20;;;;;;;13.07;9.40;;;;;;;;;;10420269;28;20410;-85
2023/03/19 18:36:26;;;;;;;11.20;8.73;;;;;;;;;;10410931;28;20502;-84
2023/03/19 18:41:28;;;;;;;12.00;8.88;;;;;;;;;;10438455;28;20407;-86
2023/03/19 18:46:33;;;;;;;12.83;8.67;;;;;;;;;;10434967;28;20461;-85
2023/03/19 18:51:36;;;;;;;15.20;10.07;;;;;;;;;;10431334;28;20473;-85
2023/03/19 18:56:38;;;;;;;11.50;8.43;;;;;;;;;;10442634;28;20411;-86
2023/03/19 19:01:40;;;;;;;11.40;8.70;;;;;;;;;;10433129;28;20771;-86
2023/03/19 19:06:44;;;;;;;10.90;8.57;;;;;;;;;;10436816;28;20431;-86
2023/03/19 19:11:47;;;;;;;11.60;9.05;;;;;;;;;;10429479;28;20412;-85
2023/03/19 19:16:50;;;;;;;12.20;9.15;;;;;;;;;;10436780;28;20421;-85
2023/03/19 19:21:54;;;;;;;15.90;9.32;;;;;;;;;;10436335;28;20435;-85
2023/03/19 19:27:00;;;;;;;13.10;9.33;;;;;;;;;;10434551;28;20451;-84
2023/03/19 19:32:19;;;;;;;12.90;9.47;;;;;;;;;;10392491;28;20413;-84
2023/03/19 19:37:23;;;;;;;13.52;11.00;;;;;;;;;;10383634;28;20419;-82
2023/03/19 19:42:25;;;;;;;13.87;10.63;;;;;;;;;;10383150;28;20513;-83
2023/03/19 19:47:27;;;;;;;12.52;10.32;;;;;;;;;;10390669;28;20499;-85
2023/03/19 19:52:30;;;;;;;12.95;10.15;;;;;;;;;;10385175;28;20421;-83
2023/03/19 19:57:32;;;;;;;13.68;10.55;;;;;;;;;;10388367;28;20848;-84
2023/03/19 20:02:34;;;;;;;14.75;10.10;;;;;;;;;;10394456;28;20425;-83
2023/03/19 20:07:38;;;;;;;14.32;11.05;;;;;;;;;;10384273;28;20421;-84
2023/03/19 20:12:41;;;;;;;14.07;11.32;;;;;;;;;;10387428;28;20785;-84
2023/03/19 20:17:43;;;;;;;13.13;10.45;;;;;;;;;;10386035;28;20425;-83
2023/03/19 20:22:48;;;;;;;13.57;10.48;;;;;;;;;;10390785;28;20417;-83
2023/03/19 20:27:55;;;;;;;13.93;11.17;;;;;;;;;;10388524;28;21044;-84
2023/03/19 20:32:59;;;;;;;12.45;10.13;;;;;;;;;;10391150;28;20421;-82
2023/03/19 20:38:04;;;;;;;12.98;9.52;;;;;;;;;;10398125;28;20455;-82
2023/03/19 20:43:07;;;;;;;11.73;9.37;;;;;;;;;;10397707;28;20441;-84
2023/03/19 20:48:15;;;;;;;12.52;9.40;;;;;;;;;;10395844;28;20419;-82
2023/03/19 20:53:18;;;;;;;12.07;9.90;;;;;;;;;;10398320;28;20417;-84
2023/03/19 20:58:29;;;;;;;12.53;9.33;;;;;;;;;;10396043;28;20437;-83
2023/03/19 21:03:31;;;;;;;12.97;10.87;;;;;;;;;;10389403;28;20540;-83
2023/03/19 21:08:37;;;;;;;15.73;11.68;;;;;;;;;;10395102;28;20961;-83
2023/03/19 21:13:40;;;;;;;14.90;10.93;;;;;;;;;;10391626;28;20425;-83
2023/03/19 21:18:42;;;;;;;15.02;11.52;;;;;;;;;;10388327;28;20413;-82
2023/03/19 21:23:53;;;;;;;14.60;10.83;;;;;;;;;;10393472;28;20437;-83
2023/03/19 21:29:00;;;;;;;13.45;10.18;;;;;;;;;;10400556;28;20421;-83
2023/03/19 21:34:02;;;;;;;12.20;10.07;;;;;;;;;;10399161;28;20443;-83
2023/03/19 21:39:05;;;;;;;15.00;11.70;;;;;;;;;;10411028;28;20447;-84
2023/03/19 21:44:12;;;;;;;16.42;12.55;;;;;;;;;;10414967;28;20423;-84
2023/03/19 21:49:14;;;;;;;13.60;11.60;;;;;;;;;;10408888;28;20447;-84
2023/03/19 21:54:17;;;;;;;16.33;12.00;;;;;;;;;;10398579;28;21004;-84
2023/03/19 21:59:22;;;;;;;15.15;12.00;;;;;;;;;;10414248;28;20848;-84
2023/03/19 22:04:24;;;;;;;14.48;11.30;;;;;;;;;;10421455;28;20419;-84
2023/03/19 22:09:30;;;;;;;15.90;11.38;;;;;;;;;;10416609;28;20959;-84
2023/03/19 22:14:32;;;;;;;14.30;10.90;;;;;;;;;;10409863;28;20408;-83
2023/03/19 22:19:34;;;;;;;14.10;11.05;;;;;;;;;;10411946;28;20417;-84
2023/03/19 22:24:38;;;;;;;15.97;12.00;;;;;;;;;;10387980;28;20491;-84
2023/03/19 22:29:40;;;;;;;14.80;11.77;;;;;;;;;;10387768;28;21041;-83
2023/03/19 22:34:42;;;;;;;13.98;11.68;;;;;;;;;;10399817;28;20410;-84
2023/03/19 22:39:47;;;;;;;15.75;12.35;;;;;;;;;;10406040;28;20413;-84
2023/03/19 22:44:49;;;;;;;16.90;12.63;;;;;;;;;;10397856;28;20429;-83
2023/03/19 22:49:58;;;;;;;16.63;13.43;;;;;;;;;;10389693;28;20475;-84
2023/03/19 22:55:01;;;;;;;17.25;13.02;;;;;;;;;;10405107;28;20420;-84
2023/03/19 23:00:10;;;;;;;16.30;12.90;;;;;;;;;;10399689;28;20939;-84
2023/03/19 23:05:25;;;;;;;15.65;12.93;;;;;;;;;;10401740;28;20456;-84
2023/03/19 23:10:31;;;;;;;16.35;13.38;;;;;;;;;;10395323;28;20884;-84
2023/03/19 23:15:33;;;;;;;16.57;13.97;;;;;;;;;;10393772;28;20507;-85
2023/03/19 23:20:35;;;;;;;17.67;14.05;;;;;;;;;;10400542;28;20419;-84
2023/03/19 23:25:40;;;;;;;16.38;13.13;;;;;;;;;;10390960;28;20434;-83
2023/03/19 23:30:42;;;;;;;18.20;13.98;;;;;;;;;;10383085;28;20425;-84
2023/03/19 23:35:44;;;;;;;20.70;15.48;;;;;;;;;;10381630;28;20415;-85
2023/03/19 23:40:48;;;;;;;20.73;15.95;;;;;;;;;;10396777;28;20431;-84
2023/03/19 23:45:52;;;;;;;22.45;16.58;;;;;;;;;;10389928;28;20435;-84
2023/03/19 23:50:53;;;;;;;23.70;16.95;;;;;;;;;;10384440;28;20421;-84
2023/03/19 23:55:59;;;;;;;22.77;17.40;;;;;;;;;;10397752;28;20757;-84
